Willard, Montana
Current Conditions -  °F | °C
As of 4:51 AM on Thursday 27 Nov 2014 (Local Time) from KBHK Reporting Station
Light Snow Light Snow  
Wind Chill:   Ceiling: 3300
Heat Index: 21°   Visibility: 3mi
Dew Point: 17°   Wind: 16mph
Humidity: 85%   Direction: 130°SE
Pressure: 30.12"   Gusts: NA
Location:  46.19°N, 104.38°W
Report Text: KBHK 271151Z AUTO 13014KT 3SM -SN BR OVC033 M06/M08 A3012 RMK AO2 SNE1054B29 SLP241 P0000 60000 70004 T10611083 11056 21061 58019
Loading
Personal Weather Stations






























Interactive Weather Map New forecast layout! Learn more

10-Day Weather Forecast

Advertisements
Track Severe Weather on mobile